Time,TemperatureF,DewpointF,PressureIn,WindDirection,WindDirectionDegrees,WindSpeedMPH,WindSpeedGustMPH,Humidity,HourlyPrecipIn,Conditions,Clouds,dailyrainin,SoftwareType,DateUTC
2013-10-14 00:00:00,31.6,25.5,29.99,WNW,292,0.0,0.0,78,0.00,,,-99.99,VWS V12.07,2013-10-14 05:00:00,
2013-10-14 00:05:00,31.6,25.5,29.99,WNW,292,0.0,0.0,78,0.00,,,-99.99,VWS V12.07,2013-10-14 05:05:00,
2013-10-14 00:10:00,31.4,25.4,29.99,WNW,292,0.0,0.0,78,0.00,,,-99.99,VWS V12.07,2013-10-14 05:10:00,
2013-10-14 00:15:00,31.2,25.1,29.99,WNW,292,0.0,0.0,78,0.00,,,-99.99,VWS V12.07,2013-10-14 05:15:00,
2013-10-14 00:20:00,31.2,25.1,29.99,WNW,292,0.0,0.0,78,0.00,,,-99.99,VWS V12.07,2013-10-14 05:20:00,
2013-10-14 00:25:00,31.2,25.1,29.99,WNW,292,0.0,0.0,78,0.00,,,-99.99,VWS V12.07,2013-10-14 05:25:00,
2013-10-14 00:30:00,31.1,25.0,29.99,WNW,292,0.0,0.0,78,0.00,,,-99.99,VWS V12.07,2013-10-14 05:30:00,
2013-10-14 00:35:00,31.1,25.0,29.99,WNW,292,0.0,0.0,78,0.00,,,-99.99,VWS V12.07,2013-10-14 05:35:00,
2013-10-14 00:40:00,31.1,25.0,29.99,WNW,292,0.0,0.0,78,0.00,,,-99.99,VWS V12.07,2013-10-14 05:40:00,
2013-10-14 00:45:00,30.9,24.9,29.99,WNW,292,0.0,0.0,78,0.00,,,-99.99,VWS V12.07,2013-10-14 05:45:00,
2013-10-14 00:50:00,30.9,24.9,29.99,WNW,292,0.0,0.0,78,0.00,,,-99.99,VWS V12.07,2013-10-14 05:50:00,
2013-10-14 00:55:00,30.9,24.9,29.99,WNW,292,0.0,0.0,78,0.00,,,-99.99,VWS V12.07,2013-10-14 05:55:00,
2013-10-14 01:00:00,30.7,25.0,29.99,WNW,292,0.0,0.0,79,0.00,,,-99.99,VWS V12.07,2013-10-14 06:00:00,
2013-10-14 01:05:00,30.7,25.0,29.99,WNW,292,0.0,0.0,79,0.00,,,-99.99,VWS V12.07,2013-10-14 06:05:00,
2013-10-14 01:10:00,30.7,25.0,29.99,WNW,292,0.0,0.0,79,0.00,,,-99.99,VWS V12.07,2013-10-14 06:10:00,
2013-10-14 01:15:00,30.7,25.0,29.99,WNW,292,0.0,0.0,79,0.00,,,-99.99,VWS V12.07,2013-10-14 06:15:00,
2013-10-14 01:20:00,30.7,25.0,29.99,WNW,292,0.0,0.0,79,0.00,,,-99.99,VWS V12.07,2013-10-14 06:20:00,
2013-10-14 01:25:00,30.7,25.0,29.99,WNW,292,0.0,0.0,79,0.00,,,-99.99,VWS V12.07,2013-10-14 06:25:00,
2013-10-14 01:30:00,30.5,24.8,29.99,WNW,292,0.0,0.0,79,0.00,,,-99.99,VWS V12.07,2013-10-14 06:30:00,
2013-10-14 01:35:00,30.5,24.8,30.00,WNW,292,0.0,0.0,79,0.00,,,-99.99,VWS V12.07,2013-10-14 06:35:00,
2013-10-14 01:40:00,30.3,24.6,30.00,WNW,292,0.0,0.0,79,0.00,,,-99.99,VWS V12.07,2013-10-14 06:40:00,
2013-10-14 01:45:00,30.3,24.6,30.00,WNW,292,0.0,0.0,79,0.00,,,-99.99,VWS V12.07,2013-10-14 06:45:00,
2013-10-14 01:50:00,30.3,24.6,30.00,WNW,292,0.0,0.0,79,0.00,,,-99.99,VWS V12.07,2013-10-14 06:50:00,
2013-10-14 01:55:00,30.2,24.5,30.00,WNW,292,0.0,0.0,79,0.00,,,-99.99,VWS V12.07,2013-10-14 06:55:00,
2013-10-14 02:00:00,30.2,24.5,30.00,WNW,292,0.0,0.0,79,0.00,,,-99.99,VWS V12.07,2013-10-14 07:00:00,
2013-10-14 02:05:00,30.0,24.3,30.00,WNW,292,0.0,0.0,79,0.00,,,-99.99,VWS V12.07,2013-10-14 07:05:00,
2013-10-14 02:10:00,30.0,24.6,30.00,WNW,292,0.0,0.0,80,0.00,,,-99.99,VWS V12.07,2013-10-14 07:10:00,
2013-10-14 02:15:00,30.0,24.6,30.00,WNW,292,0.0,0.0,80,0.00,,,-99.99,VWS V12.07,2013-10-14 07:15:00,
2013-10-14 02:20:00,30.0,24.6,30.00,WNW,292,0.0,0.0,80,0.00,,,-99.99,VWS V12.07,2013-10-14 07:20:00,
2013-10-14 02:25:00,30.0,24.6,30.00,WNW,292,0.0,0.0,80,0.00,,,-99.99,VWS V12.07,2013-10-14 07:25:00,
2013-10-14 02:30:00,30.0,24.6,30.00,WNW,292,0.0,0.0,80,0.00,,,-99.99,VWS V12.07,2013-10-14 07:30:00,
2013-10-14 02:35:00,30.0,24.6,30.00,WNW,292,0.0,0.0,80,0.00,,,-99.99,VWS V12.07,2013-10-14 07:35:00,
2013-10-14 02:40:00,30.0,24.6,30.00,WNW,292,0.0,0.0,80,0.00,,,-99.99,VWS V12.07,2013-10-14 07:40:00,
2013-10-14 02:45:00,30.0,24.6,30.00,WNW,292,0.0,0.0,80,0.00,,,-99.99,VWS V12.07,2013-10-14 07:45:00,
2013-10-14 02:50:00,30.0,24.6,30.01,WNW,292,0.0,0.0,80,0.00,,,-99.99,VWS V12.07,2013-10-14 07:50:00,
2013-10-14 02:55:00,29.8,24.4,30.01,WNW,292,0.0,0.0,80,0.00,,,-99.99,VWS V12.07,2013-10-14 07:55:00,
2013-10-14 03:00:00,29.8,24.4,30.01,WNW,292,0.0,0.0,80,0.00,,,-99.99,VWS V12.07,2013-10-14 08:00:00,
2013-10-14 03:05:00,29.8,24.4,30.01,WNW,292,0.0,0.0,80,0.00,,,-99.99,VWS V12.07,2013-10-14 08:05:00,
2013-10-14 03:10:00,29.8,24.4,30.01,WNW,292,0.0,0.0,80,0.00,,,-99.99,VWS V12.07,2013-10-14 08:10:00,
2013-10-14 03:15:00,29.6,24.2,30.01,WNW,292,0.0,0.0,80,0.00,,,-99.99,VWS V12.07,2013-10-14 08:15:00,
2013-10-14 03:20:00,29.6,24.2,30.01,WNW,292,0.0,0.0,80,0.00,,,-99.99,VWS V12.07,2013-10-14 08:20:00,
2013-10-14 03:25:00,29.6,24.2,30.01,WNW,292,0.0,0.0,80,0.00,,,-99.99,VWS V12.07,2013-10-14 08:25:00,
2013-10-14 03:30:00,29.4,24.0,30.01,WNW,292,0.0,0.0,80,0.00,,,-99.99,VWS V12.07,2013-10-14 08:30:00,
2013-10-14 03:35:00,29.4,24.0,30.01,WNW,292,0.0,0.0,80,0.00,,,-99.99,VWS V12.07,2013-10-14 08:35:00,
2013-10-14 03:40:00,29.4,24.3,30.01,WNW,292,0.0,0.0,81,0.00,,,-99.99,VWS V12.07,2013-10-14 08:40:00,
2013-10-14 03:45:00,29.4,24.3,30.01,WNW,292,0.0,0.0,81,0.00,,,-99.99,VWS V12.07,2013-10-14 08:45:00,
2013-10-14 03:50:00,29.4,24.3,30.01,WNW,292,0.0,0.0,81,0.00,,,-99.99,VWS V12.07,2013-10-14 08:50:00,
2013-10-14 03:55:00,29.3,24.2,30.01,WNW,292,0.0,0.0,81,0.00,,,-99.99,VWS V12.07,2013-10-14 08:55:00,
2013-10-14 04:00:00,29.3,24.2,30.01,WNW,292,0.0,0.0,81,0.00,,,-99.99,VWS V12.07,2013-10-14 09:00:00,
2013-10-14 04:05:00,29.3,24.2,30.01,WNW,292,0.0,0.0,81,0.00,,,-99.99,VWS V12.07,2013-10-14 09:05:00,
2013-10-14 04:10:00,29.3,24.2,30.01,WNW,292,0.0,0.0,81,0.00,,,-99.99,VWS V12.07,2013-10-14 09:10:00,
2013-10-14 04:15:00,29.3,24.2,30.01,WNW,292,0.0,0.0,81,0.00,,,-99.99,VWS V12.07,2013-10-14 09:15:00,
2013-10-14 04:20:00,29.3,24.2,30.01,WNW,292,0.0,0.0,81,0.00,,,-99.99,VWS V12.07,2013-10-14 09:20:00,
2013-10-14 04:25:00,29.3,24.2,30.01,WNW,292,0.0,0.0,81,0.00,,,-99.99,VWS V12.07,2013-10-14 09:25:00,
2013-10-14 04:30:00,29.3,24.2,30.01,WNW,292,0.0,0.0,81,0.00,,,-99.99,VWS V12.07,2013-10-14 09:30:00,
2013-10-14 04:35:00,29.3,24.2,30.01,WNW,292,0.0,0.0,81,0.00,,,-99.99,VWS V12.07,2013-10-14 09:35:00,
2013-10-14 04:40:00,29.1,24.0,30.01,WNW,292,0.0,0.0,81,0.00,,,-99.99,VWS V12.07,2013-10-14 09:40:00,
2013-10-14 04:45:00,29.3,24.2,30.01,WNW,292,0.0,0.0,81,0.00,,,-99.99,VWS V12.07,2013-10-14 09:45:00,
2013-10-14 04:50:00,29.1,24.3,30.01,WNW,292,0.0,0.0,82,0.00,,,-99.99,VWS V12.07,2013-10-14 09:50:00,
2013-10-14 04:55:00,29.1,24.3,30.01,WNW,292,0.0,0.0,82,0.00,,,-99.99,VWS V12.07,2013-10-14 09:55:00,
2013-10-14 05:00:00,29.1,24.3,30.00,WNW,292,0.0,0.0,82,0.00,,,-99.99,VWS V12.07,2013-10-14 10:00:00,
2013-10-14 05:05:00,29.1,24.0,30.00,WNW,292,0.0,0.0,81,0.00,,,-99.99,VWS V12.07,2013-10-14 10:05:00,
2013-10-14 05:10:00,29.1,24.0,30.00,WNW,292,0.0,0.0,81,0.00,,,-99.99,VWS V12.07,2013-10-14 10:10:00,
2013-10-14 05:15:00,29.1,24.3,29.99,WNW,292,0.0,0.0,82,0.00,,,-99.99,VWS V12.07,2013-10-14 10:15:00,
2013-10-14 05:20:00,29.1,24.3,29.99,WNW,292,0.0,0.0,82,0.00,,,-99.99,VWS V12.07,2013-10-14 10:20:00,
2013-10-14 05:25:00,29.1,24.3,30.00,WNW,292,0.0,0.0,82,0.00,,,-99.99,VWS V12.07,2013-10-14 10:25:00,
2013-10-14 05:30:00,29.1,24.3,30.00,WNW,292,0.0,0.0,82,0.00,,,-99.99,VWS V12.07,2013-10-14 10:30:00,
2013-10-14 05:35:00,29.1,24.3,30.00,WNW,292,0.0,0.0,82,0.00,,,-99.99,VWS V12.07,2013-10-14 10:35:00,
2013-10-14 05:40:00,29.1,24.3,30.00,WNW,292,0.0,0.0,82,0.00,,,-99.99,VWS V12.07,2013-10-14 10:40:00,
2013-10-14 05:45:00,29.1,24.3,30.00,WNW,292,0.0,0.0,82,0.00,,,-99.99,VWS V12.07,2013-10-14 10:45:00,
2013-10-14 05:50:00,29.1,24.3,30.00,WNW,292,0.0,0.0,82,0.00,,,-99.99,VWS V12.07,2013-10-14 10:50:00,
2013-10-14 05:55:00,29.1,24.3,30.00,WNW,292,0.0,0.0,82,0.00,,,-99.99,VWS V12.07,2013-10-14 10:55:00,
2013-10-14 06:00:00,28.9,24.1,30.00,WNW,292,0.0,0.0,82,0.00,,,-99.99,VWS V12.07,2013-10-14 11:00:00,
2013-10-14 06:05:00,28.9,24.1,30.00,WNW,292,0.0,0.0,82,0.00,,,-99.99,VWS V12.07,2013-10-14 11:05:00,
2013-10-14 06:10:00,28.9,24.1,30.00,WNW,292,0.0,0.0,82,0.00,,,-99.99,VWS V12.07,2013-10-14 11:10:00,
2013-10-14 06:15:00,28.7,23.9,30.00,WNW,292,0.0,0.0,82,0.00,,,-99.99,VWS V12.07,2013-10-14 11:15:00,
2013-10-14 06:20:00,28.7,23.9,30.00,WNW,292,0.0,0.0,82,0.00,,,-99.99,VWS V12.07,2013-10-14 11:20:00,
2013-10-14 06:25:00,28.7,23.9,30.01,WNW,292,0.0,0.0,82,0.00,,,-99.99,VWS V12.07,2013-10-14 11:25:00,
2013-10-14 06:35:00,28.7,23.9,30.01,WNW,292,0.0,0.0,82,0.00,,,-99.99,VWS V12.07,2013-10-14 11:35:00,
2013-10-14 06:40:00,28.5,24.0,30.01,WNW,292,0.0,0.0,83,0.00,,,-99.99,VWS V12.07,2013-10-14 11:40:00,
2013-10-14 06:45:00,28.5,24.0,30.01,WNW,292,0.0,0.0,83,0.00,,,-99.99,VWS V12.07,2013-10-14 11:45:00,
2013-10-14 06:50:00,28.5,24.0,30.01,WNW,292,0.0,0.0,83,0.00,,,-99.99,VWS V12.07,2013-10-14 11:50:00,
2013-10-14 06:55:00,28.5,23.7,30.01,WNW,292,0.0,0.0,82,0.00,,,-99.99,VWS V12.07,2013-10-14 11:55:00,
2013-10-14 07:00:00,28.5,23.7,30.02,WNW,292,0.0,0.0,82,0.00,,,-99.99,VWS V12.07,2013-10-14 12:00:00,
2013-10-14 07:05:00,28.5,23.7,30.02,WNW,292,0.0,0.0,82,0.00,,,-99.99,VWS V12.07,2013-10-14 12:05:00,
2013-10-14 07:10:00,28.5,23.7,30.01,WNW,292,0.0,0.0,82,0.00,,,-99.99,VWS V12.07,2013-10-14 12:10:00,
2013-10-14 07:15:00,28.4,23.6,30.01,WNW,292,0.0,0.0,82,0.00,,,-99.99,VWS V12.07,2013-10-14 12:15:00,
2013-10-14 07:20:00,28.4,23.6,30.01,WNW,292,0.0,0.0,82,0.00,,,-99.99,VWS V12.07,2013-10-14 12:20:00,
2013-10-14 07:25:00,28.2,23.4,30.01,WNW,292,0.0,0.0,82,0.00,,,-99.99,VWS V12.07,2013-10-14 12:25:00,
2013-10-14 07:30:00,28.2,23.4,30.01,WNW,292,0.0,0.0,82,0.00,,,-99.99,VWS V12.07,2013-10-14 12:30:00,
2013-10-14 07:35:00,28.4,23.6,30.00,WNW,292,0.0,0.0,82,0.00,,,-99.99,VWS V12.07,2013-10-14 12:35:00,
2013-10-14 07:40:00,28.5,23.7,30.00,WNW,292,0.0,0.0,82,0.00,,,-99.99,VWS V12.07,2013-10-14 12:40:00,
2013-10-14 07:45:00,28.5,24.0,30.01,WNW,292,0.0,0.0,83,0.00,,,-99.99,VWS V12.07,2013-10-14 12:45:00,
2013-10-14 07:50:00,28.7,24.2,30.01,WNW,292,0.0,0.0,83,0.00,,,-99.99,VWS V12.07,2013-10-14 12:50:00,
2013-10-14 07:55:00,28.7,24.2,30.01,WNW,292,0.0,0.0,83,0.00,,,-99.99,VWS V12.07,2013-10-14 12:55:00,
2013-10-14 08:00:00,28.9,24.4,30.00,WNW,292,0.0,0.0,83,0.00,,,-99.99,VWS V12.07,2013-10-14 13:00:00,
2013-10-14 08:05:00,28.9,24.4,30.01,WNW,292,0.0,0.0,83,0.00,,,-99.99,VWS V12.07,2013-10-14 13:05:00,
2013-10-14 08:10:00,28.9,24.4,30.00,WNW,292,0.0,0.0,83,0.00,,,-99.99,VWS V12.07,2013-10-14 13:10:00,
2013-10-14 08:15:00,29.3,24.8,30.00,WNW,292,0.0,0.0,83,0.00,,,-99.99,VWS V12.07,2013-10-14 13:15:00,
2013-10-14 08:20:00,29.4,24.9,30.00,WNW,292,0.0,0.0,83,0.00,,,-99.99,VWS V12.07,2013-10-14 13:20:00,
2013-10-14 08:25:00,29.8,25.3,30.00,WNW,292,0.0,0.0,83,0.00,,,-99.99,VWS V12.07,2013-10-14 13:25:00,
2013-10-14 08:30:00,30.2,25.7,30.00,WNW,292,0.0,0.0,83,0.00,,,-99.99,VWS V12.07,2013-10-14 13:30:00,
2013-10-14 08:35:00,30.7,26.5,30.00,WNW,292,0.0,0.0,84,0.00,,,-99.99,VWS V12.07,2013-10-14 13:35:00,
2013-10-14 08:40:00,31.1,26.8,30.00,WNW,292,0.0,0.0,84,0.00,,,-99.99,VWS V12.07,2013-10-14 13:40:00,
2013-10-14 08:45:00,31.8,27.5,30.00,WNW,292,0.0,0.0,84,0.00,,,-99.99,VWS V12.07,2013-10-14 13:45:00,
2013-10-14 08:50:00,32.3,28.0,30.00,WNW,292,0.0,0.0,84,0.00,,,-99.99,VWS V12.07,2013-10-14 13:50:00,
2013-10-14 08:55:00,32.7,28.4,30.00,WNW,292,0.0,0.0,84,0.00,,,-99.99,VWS V12.07,2013-10-14 13:55:00,
2013-10-14 09:00:00,33.9,29.9,29.99,WNW,292,0.0,0.0,85,0.00,,,-99.99,VWS V12.07,2013-10-14 14:00:00,
2013-10-14 09:05:00,34.7,30.7,29.99,WNW,292,0.0,0.0,85,0.00,,,-99.99,VWS V12.07,2013-10-14 14:05:00,
2013-10-14 09:10:00,35.4,31.6,29.99,WNW,292,0.0,0.0,86,0.00,,,-99.99,VWS V12.07,2013-10-14 14:10:00,
2013-10-14 09:15:00,36.1,32.3,29.99,WNW,292,0.0,0.0,86,0.00,,,-99.99,VWS V12.07,2013-10-14 14:15:00,
2013-10-14 09:20:00,36.5,32.7,29.99,WNW,292,0.0,0.0,86,0.00,,,-99.99,VWS V12.07,2013-10-14 14:20:00,
2013-10-14 09:25:00,36.8,33.0,29.99,WNW,292,0.0,0.0,86,0.00,,,-99.99,VWS V12.07,2013-10-14 14:25:00,
2013-10-14 09:30:00,37.2,33.4,29.99,WNW,292,0.0,0.0,86,0.00,,,-99.99,VWS V12.07,2013-10-14 14:30:00,
2013-10-14 09:35:00,37.5,33.7,29.99,WNW,292,0.0,0.0,86,0.00,,,-99.99,VWS V12.07,2013-10-14 14:35:00,
2013-10-14 09:40:00,37.9,34.1,29.99,WNW,292,0.0,0.0,86,0.00,,,-99.99,VWS V12.07,2013-10-14 14:40:00,
2013-10-14 09:45:00,38.8,35.0,29.99,WNW,292,0.0,0.0,86,0.00,,,-99.99,VWS V12.07,2013-10-14 14:45:00,
2013-10-14 09:50:00,39.3,35.5,29.99,WNW,292,0.0,0.0,86,0.00,,,-99.99,VWS V12.07,2013-10-14 14:50:00,
2013-10-14 09:55:00,40.1,36.5,29.99,WNW,292,0.0,0.0,87,0.00,,,-99.99,VWS V12.07,2013-10-14 14:55:00,
2013-10-14 10:00:00,41.3,37.7,29.99,WNW,292,0.0,0.0,87,0.00,,,-99.99,VWS V12.07,2013-10-14 15:00:00,
2013-10-14 10:05:00,42.0,38.1,29.99,WNW,292,0.0,0.0,86,0.00,,,-99.99,VWS V12.07,2013-10-14 15:05:00,
2013-10-14 10:10:00,42.9,39.0,29.99,WNW,292,0.0,0.0,86,0.00,,,-99.99,VWS V12.07,2013-10-14 15:10:00,
2013-10-14 10:15:00,43.8,39.6,29.99,WNW,292,0.0,0.0,85,0.00,,,-99.99,VWS V12.07,2013-10-14 15:15:00,
2013-10-14 10:20:00,44.6,40.1,29.99,WNW,292,0.0,0.0,84,0.00,,,-99.99,VWS V12.07,2013-10-14 15:20:00,
2013-10-14 10:25:00,45.3,40.5,29.99,WNW,292,0.0,0.0,83,0.00,,,-99.99,VWS V12.07,2013-10-14 15:25:00,
2013-10-14 10:30:00,46.2,40.7,29.99,SSW,202,0.0,0.0,81,0.00,,,-99.99,VWS V12.07,2013-10-14 15:30:00,
2013-10-14 10:35:00,46.9,41.1,29.98,SSW,202,0.0,0.0,80,0.00,,,-99.99,VWS V12.07,2013-10-14 15:35:00,
2013-10-14 10:40:00,47.4,41.2,29.99,SSW,202,0.0,0.0,79,0.00,,,-99.99,VWS V12.07,2013-10-14 15:40:00,
2013-10-14 10:45:00,48.2,41.3,29.99,SSW,202,0.0,0.0,77,0.00,,,-99.99,VWS V12.07,2013-10-14 15:45:00,
2013-10-14 10:50:00,48.7,41.1,29.98,ESE,112,0.0,0.0,75,0.00,,,-99.99,VWS V12.07,2013-10-14 15:50:00,
2013-10-14 10:55:00,49.1,41.5,29.98,ESE,112,0.0,0.0,75,0.00,,,-99.99,VWS V12.07,2013-10-14 15:55:00,
2013-10-14 11:00:00,49.6,41.7,29.99,ESE,112,0.0,0.0,74,0.00,,,-99.99,VWS V12.07,2013-10-14 16:00:00,
2013-10-14 11:05:00,49.8,41.5,29.99,ESE,112,0.0,0.0,73,0.00,,,-99.99,VWS V12.07,2013-10-14 16:05:00,
2013-10-14 11:10:00,49.8,41.2,29.99,SE,135,0.0,0.0,72,0.00,,,-99.99,VWS V12.07,2013-10-14 16:10:00,
2013-10-14 11:15:00,50.1,41.1,29.98,SE,135,0.0,0.0,71,0.00,,,-99.99,VWS V12.07,2013-10-14 16:15:00,
2013-10-14 11:20:00,50.3,41.3,29.98,SE,135,0.0,0.0,71,0.00,,,-99.99,VWS V12.07,2013-10-14 16:20:00,
2013-10-14 11:25:00,50.3,40.9,29.99,SE,135,0.0,0.0,70,0.00,,,-99.99,VWS V12.07,2013-10-14 16:25:00,
2013-10-14 11:30:00,50.3,40.9,29.99,SE,135,0.0,0.0,70,0.00,,,-99.99,VWS V12.07,2013-10-14 16:30:00,
2013-10-14 11:35:00,50.5,40.7,29.99,SE,135,0.0,0.0,69,0.00,,,-99.99,VWS V12.07,2013-10-14 16:35:00,
2013-10-14 11:40:00,50.5,40.7,29.99,SSW,202,2.2,2.2,69,0.00,,,-99.99,VWS V12.07,2013-10-14 16:40:00,
2013-10-14 11:45:00,50.7,40.5,29.98,NE,45,0.0,2.2,68,0.00,,,-99.99,VWS V12.07,2013-10-14 16:45:00,
2013-10-14 11:50:00,50.7,40.5,29.98,NE,45,0.0,0.0,68,0.00,,,-99.99,VWS V12.07,2013-10-14 16:50:00,
2013-10-14 11:55:00,50.7,40.5,29.98,NE,45,0.0,0.0,68,0.00,,,-99.99,VWS V12.07,2013-10-14 16:55:00,
2013-10-14 12:00:00,50.7,40.2,29.98,NE,45,0.0,0.0,67,0.00,,,-99.99,VWS V12.07,2013-10-14 17:00:00,
2013-10-14 12:05:00,50.7,40.2,29.98,SSE,158,1.3,1.3,67,0.00,,,-99.99,VWS V12.07,2013-10-14 17:05:00,
2013-10-14 12:10:00,50.7,40.2,29.98,SSE,158,0.0,1.3,67,0.00,,,-99.99,VWS V12.07,2013-10-14 17:10:00,
2013-10-14 12:15:00,50.9,40.0,29.98,SSE,158,0.0,1.3,66,0.00,,,-99.99,VWS V12.07,2013-10-14 17:15:00,
2013-10-14 12:20:00,50.9,40.0,29.97,SSE,158,0.0,0.0,66,0.00,,,-99.99,VWS V12.07,2013-10-14 17:20:00,
2013-10-14 12:25:00,50.9,40.0,29.97,SSW,202,2.6,2.6,66,0.00,,,-99.99,VWS V12.07,2013-10-14 17:25:00,
2013-10-14 12:30:00,51.0,40.1,29.96,SSW,202,0.8,2.6,66,0.00,,,-99.99,VWS V12.07,2013-10-14 17:30:00,
2013-10-14 12:35:00,51.0,39.7,29.96,SSW,202,0.0,0.8,65,0.00,,,-99.99,VWS V12.07,2013-10-14 17:35:00,
2013-10-14 12:40:00,51.0,39.7,29.96,SSW,202,0.0,0.8,65,0.00,,,-99.99,VWS V12.07,2013-10-14 17:40:00,
2013-10-14 12:45:00,51.2,39.8,29.96,SSW,202,0.6,0.8,65,0.00,,,-99.99,VWS V12.07,2013-10-14 17:45:00,
2013-10-14 12:50:00,51.6,40.2,29.96,SSE,158,0.0,0.6,65,0.00,,,-99.99,VWS V12.07,2013-10-14 17:50:00,
2013-10-14 12:55:00,51.9,40.1,29.96,SSE,158,0.0,0.6,64,0.00,,,-99.99,VWS V12.07,2013-10-14 17:55:00,
2013-10-14 13:00:00,52.3,40.1,29.96,NE,45,0.0,0.6,63,0.00,,,-99.99,VWS V12.07,2013-10-14 18:00:00,
2013-10-14 13:05:00,52.5,40.3,29.95,NE,45,0.0,0.0,63,0.00,,,-99.99,VWS V12.07,2013-10-14 18:05:00,
2013-10-14 13:10:00,52.8,40.2,29.95,ENE,68,1.1,1.1,62,0.00,,,-99.99,VWS V12.07,2013-10-14 18:10:00,
2013-10-14 13:15:00,52.8,39.7,29.95,ENE,68,0.0,1.1,61,0.00,,,-99.99,VWS V12.07,2013-10-14 18:15:00,
2013-10-14 13:20:00,53.2,40.1,29.95,ENE,68,0.0,0.0,61,0.00,,,-99.99,VWS V12.07,2013-10-14 18:20:00,
2013-10-14 13:25:00,53.2,40.1,29.95,ENE,68,0.0,0.0,61,0.00,,,-99.99,VWS V12.07,2013-10-14 18:25:00,
2013-10-14 13:30:00,53.6,40.5,29.94,ENE,68,0.0,0.0,61,0.00,,,-99.99,VWS V12.07,2013-10-14 18:30:00,
2013-10-14 13:35:00,53.7,40.6,29.94,ENE,68,0.0,0.0,61,0.00,,,-99.99,VWS V12.07,2013-10-14 18:35:00,
2013-10-14 13:40:00,53.9,40.3,29.93,ENE,68,0.0,0.0,60,0.00,,,-99.99,VWS V12.07,2013-10-14 18:40:00,
2013-10-14 13:45:00,54.1,40.5,29.93,ENE,68,0.0,0.0,60,0.00,,,-99.99,VWS V12.07,2013-10-14 18:45:00,
2013-10-14 13:50:00,54.1,40.1,29.93,ENE,68,0.0,0.0,59,0.00,,,-99.99,VWS V12.07,2013-10-14 18:50:00,
2013-10-14 13:55:00,54.1,40.1,29.92,ENE,68,0.0,2.4,59,0.00,,,-99.99,VWS V12.07,2013-10-14 18:55:00,
2013-10-14 14:00:00,54.1,40.1,29.92,East,90,0.0,2.4,59,0.00,,,-99.99,VWS V12.07,2013-10-14 19:00:00,
2013-10-14 14:05:00,54.1,40.1,29.92,East,90,0.0,0.0,59,0.00,,,-99.99,VWS V12.07,2013-10-14 19:05:00,
2013-10-14 14:10:00,54.1,40.1,29.91,ENE,68,0.8,0.8,59,0.00,,,-99.99,VWS V12.07,2013-10-14 19:10:00,
2013-10-14 14:15:00,53.9,39.9,29.92,East,90,0.0,0.8,59,0.00,,,-99.99,VWS V12.07,2013-10-14 19:15:00,
2013-10-14 14:20:00,54.1,39.7,29.92,East,90,0.0,0.0,58,0.00,,,-99.99,VWS V12.07,2013-10-14 19:20:00,
2013-10-14 14:25:00,54.1,39.7,29.91,East,90,0.0,0.0,58,0.00,,,-99.99,VWS V12.07,2013-10-14 19:25:00,
2013-10-14 14:30:00,54.1,39.7,29.91,WSW,248,0.0,0.0,58,0.00,,,-99.99,VWS V12.07,2013-10-14 19:30:00,
2013-10-14 14:35:00,54.1,39.7,29.91,WSW,248,0.0,0.0,58,0.00,,,-99.99,VWS V12.07,2013-10-14 19:35:00,
2013-10-14 14:40:00,54.1,39.7,29.91,WSW,248,0.0,0.0,58,0.00,,,-99.99,VWS V12.07,2013-10-14 19:40:00,
2013-10-14 14:45:00,54.1,39.7,29.91,WSW,248,0.0,0.0,58,0.00,,,-99.99,VWS V12.07,2013-10-14 19:45:00,
2013-10-14 14:50:00,54.1,39.7,29.90,WSW,248,0.0,0.0,58,0.00,,,-99.99,VWS V12.07,2013-10-14 19:50:00,
2013-10-14 14:55:00,54.1,39.7,29.90,WSW,248,0.0,0.0,58,0.00,,,-99.99,VWS V12.07,2013-10-14 19:55:00,
2013-10-14 15:00:00,54.3,39.4,29.90,WSW,248,0.0,0.0,57,0.00,,,-99.99,VWS V12.07,2013-10-14 20:00:00,
2013-10-14 15:05:00,54.3,39.8,29.89,WSW,248,0.0,0.0,58,0.00,,,-99.99,VWS V12.07,2013-10-14 20:05:00,
2013-10-14 15:10:00,54.3,39.4,29.89,WSW,248,0.0,0.0,57,0.00,,,-99.99,VWS V12.07,2013-10-14 20:10:00,
2013-10-14 15:15:00,54.3,39.4,29.89,NW,315,0.0,0.0,57,0.00,,,-99.99,VWS V12.07,2013-10-14 20:15:00,
2013-10-14 15:20:00,54.3,39.4,29.88,NW,315,0.0,0.0,57,0.00,,,-99.99,VWS V12.07,2013-10-14 20:20:00,
2013-10-14 15:25:00,54.1,39.2,29.88,NE,45,0.0,0.0,57,0.00,,,-99.99,VWS V12.07,2013-10-14 20:25:00,
2013-10-14 15:30:00,54.1,39.2,29.88,NE,45,0.0,0.0,57,0.00,,,-99.99,VWS V12.07,2013-10-14 20:30:00,
2013-10-14 15:35:00,54.1,39.2,29.88,NE,45,0.0,0.0,57,0.00,,,-99.99,VWS V12.07,2013-10-14 20:35:00,
2013-10-14 15:40:00,54.1,39.2,29.87,NE,45,0.0,1.7,57,0.00,,,-99.99,VWS V12.07,2013-10-14 20:40:00,
2013-10-14 15:45:00,53.7,38.8,29.87,NE,45,0.0,1.7,57,0.00,,,-99.99,VWS V12.07,2013-10-14 20:45:00,
2013-10-14 15:50:00,53.7,38.8,29.86,NE,45,0.0,0.0,57,0.00,,,-99.99,VWS V12.07,2013-10-14 20:50:00,
2013-10-14 15:55:00,53.7,38.8,29.86,NE,45,0.0,0.0,57,0.00,,,-99.99,VWS V12.07,2013-10-14 20:55:00,
2013-10-14 16:00:00,53.7,39.3,29.86,NE,45,0.0,0.0,58,0.00,,,-99.99,VWS V12.07,2013-10-14 21:00:00,
2013-10-14 16:05:00,53.7,39.3,29.86,NE,45,0.0,0.0,58,0.00,,,-99.99,VWS V12.07,2013-10-14 21:05:00,
2013-10-14 16:10:00,53.4,39.0,29.86,NE,45,0.0,0.0,58,0.00,,,-99.99,VWS V12.07,2013-10-14 21:10:00,
2013-10-14 16:15:00,53.4,39.0,29.86,NE,45,0.0,0.0,58,0.00,,,-99.99,VWS V12.07,2013-10-14 21:15:00,
2013-10-14 16:20:00,53.4,39.0,29.86,NE,45,0.0,0.0,58,0.00,,,-99.99,VWS V12.07,2013-10-14 21:20:00,
2013-10-14 16:25:00,53.4,38.6,29.85,NE,45,0.0,1.3,57,0.00,,,-99.99,VWS V12.07,2013-10-14 21:25:00,
2013-10-14 16:30:00,53.2,38.4,29.86,NE,45,0.0,1.3,57,0.00,,,-99.99,VWS V12.07,2013-10-14 21:30:00,
2013-10-14 16:35:00,53.2,38.4,29.86,NE,45,0.0,0.0,57,0.00,,,-99.99,VWS V12.07,2013-10-14 21:35:00,
2013-10-14 16:40:00,53.2,38.8,29.86,NE,45,0.0,0.0,58,0.00,,,-99.99,VWS V12.07,2013-10-14 21:40:00,
2013-10-14 16:45:00,52.8,38.5,29.86,NE,45,0.0,0.2,58,0.00,,,-99.99,VWS V12.07,2013-10-14 21:45:00,
2013-10-14 16:50:00,52.8,38.0,29.86,NE,45,1.3,1.3,57,0.00,,,-99.99,VWS V12.07,2013-10-14 21:50:00,
2013-10-14 16:55:00,52.8,38.0,29.85,NE,45,0.0,1.3,57,0.00,,,-99.99,VWS V12.07,2013-10-14 21:55:00,
2013-10-14 17:00:00,52.5,37.7,29.85,NE,45,0.0,1.3,57,0.00,,,-99.99,VWS V12.07,2013-10-14 22:00:00,
2013-10-14 17:05:00,52.3,37.5,29.85,NE,45,0.0,0.0,57,0.00,,,-99.99,VWS V12.07,2013-10-14 22:05:00,
2013-10-14 17:10:00,52.3,37.5,29.85,NE,45,0.8,0.8,57,0.00,,,-99.99,VWS V12.07,2013-10-14 22:10:00,
2013-10-14 17:15:00,52.1,37.3,29.84,NE,45,0.6,0.8,57,0.00,,,-99.99,VWS V12.07,2013-10-14 22:15:00,
2013-10-14 17:20:00,51.9,37.6,29.84,NE,45,0.0,0.6,58,0.00,,,-99.99,VWS V12.07,2013-10-14 22:20:00,
2013-10-14 17:25:00,51.8,37.5,29.84,NE,45,0.8,1.3,58,0.00,,,-99.99,VWS V12.07,2013-10-14 22:25:00,
2013-10-14 17:30:00,51.6,37.3,29.84,NE,45,0.0,2.0,58,0.00,,,-99.99,VWS V12.07,2013-10-14 22:30:00,
2013-10-14 17:35:00,51.6,37.3,29.84,NE,45,1.5,1.5,58,0.00,,,-99.99,VWS V12.07,2013-10-14 22:35:00,
2013-10-14 17:40:00,51.4,37.1,29.84,NE,45,0.0,1.5,58,0.00,,,-99.99,VWS V12.07,2013-10-14 22:40:00,
2013-10-14 17:45:00,51.4,37.1,29.84,NE,45,0.0,1.5,58,0.00,,,-99.99,VWS V12.07,2013-10-14 22:45:00,
2013-10-14 17:50:00,51.2,37.0,29.84,NE,45,0.0,0.0,58,0.00,,,-99.99,VWS V12.07,2013-10-14 22:50:00,
2013-10-14 17:55:00,51.0,36.8,29.83,NE,45,0.0,0.0,58,0.00,,,-99.99,VWS V12.07,2013-10-14 22:55:00,
2013-10-14 18:00:00,50.9,36.7,29.83,NE,45,0.0,3.1,58,0.00,,,-99.99,VWS V12.07,2013-10-14 23:00:00,
2013-10-14 18:05:00,50.7,36.9,29.83,NE,45,0.0,0.0,59,0.00,,,-99.99,VWS V12.07,2013-10-14 23:05:00,
2013-10-14 18:10:00,50.5,36.7,29.83,NE,45,0.0,0.0,59,0.00,,,-99.99,VWS V12.07,2013-10-14 23:10:00,
2013-10-14 18:15:00,50.5,36.7,29.83,NE,45,0.0,0.0,59,0.00,,,-99.99,VWS V12.07,2013-10-14 23:15:00,
2013-10-14 18:20:00,50.3,36.5,29.83,NE,45,0.0,0.0,59,0.00,,,-99.99,VWS V12.07,2013-10-14 23:20:00,
2013-10-14 18:25:00,50.3,36.5,29.83,NE,45,1.3,1.3,59,0.00,,,-99.99,VWS V12.07,2013-10-14 23:25:00,
2013-10-14 18:30:00,50.1,36.3,29.84,NE,45,0.0,1.3,59,0.00,,,-99.99,VWS V12.07,2013-10-14 23:30:00,
2013-10-14 18:35:00,50.1,36.3,29.84,NE,45,0.8,0.8,59,0.00,,,-99.99,VWS V12.07,2013-10-14 23:35:00,
2013-10-14 18:40:00,49.8,36.1,29.84,NE,45,0.0,0.8,59,0.00,,,-99.99,VWS V12.07,2013-10-14 23:40:00,
2013-10-14 18:45:00,49.8,36.1,29.84,NE,45,0.0,0.8,59,0.00,,,-99.99,VWS V12.07,2013-10-14 23:45:00,
2013-10-14 18:50:00,49.8,36.1,29.84,NE,45,0.0,0.0,59,0.00,,,-99.99,VWS V12.07,2013-10-14 23:50:00,
2013-10-14 18:55:00,49.6,35.9,29.84,NE,45,0.0,0.0,59,0.00,,,-99.99,VWS V12.07,2013-10-14 23:55:00,
2013-10-14 19:00:00,49.4,35.7,29.84,NE,45,0.0,0.0,59,0.00,,,-99.99,VWS V12.07,2013-10-15 00:00:00,
2013-10-14 19:05:00,49.2,35.5,29.83,NE,45,0.0,2.0,59,0.00,,,-99.99,VWS V12.07,2013-10-15 00:05:00,
2013-10-14 19:10:00,49.1,35.4,29.83,NE,45,2.0,2.0,59,0.00,,,-99.99,VWS V12.07,2013-10-15 00:10:00,
2013-10-14 19:15:00,49.1,35.4,29.83,NE,45,0.0,2.0,59,0.00,,,-99.99,VWS V12.07,2013-10-15 00:15:00,
2013-10-14 19:20:00,48.9,35.2,29.83,NE,45,1.5,1.5,59,0.00,,,-99.99,VWS V12.07,2013-10-15 00:20:00,
2013-10-14 19:25:00,48.7,35.0,29.83,NE,45,0.0,3.1,59,0.00,,,-99.99,VWS V12.07,2013-10-15 00:25:00,
2013-10-14 19:30:00,48.7,35.5,29.83,NE,45,0.6,3.1,60,0.00,,,-99.99,VWS V12.07,2013-10-15 00:30:00,
2013-10-14 19:35:00,48.7,35.5,29.84,NE,45,0.0,0.6,60,0.00,,,-99.99,VWS V12.07,2013-10-15 00:35:00,
2013-10-14 19:40:00,48.7,35.5,29.84,NE,45,1.1,1.1,60,0.00,,,-99.99,VWS V12.07,2013-10-15 00:40:00,
2013-10-14 19:45:00,48.5,35.3,29.83,NE,45,0.0,1.1,60,0.00,,,-99.99,VWS V12.07,2013-10-15 00:45:00,
2013-10-14 19:50:00,48.5,35.3,29.83,NE,45,0.0,0.0,60,0.00,,,-99.99,VWS V12.07,2013-10-15 00:50:00,
2013-10-14 19:55:00,48.3,35.1,29.83,NE,45,1.1,1.1,60,0.00,,,-99.99,VWS V12.07,2013-10-15 00:55:00,
2013-10-14 20:00:00,48.3,35.1,29.83,NE,45,0.0,1.1,60,0.00,,,-99.99,VWS V12.07,2013-10-15 01:00:00,
2013-10-14 20:05:00,48.3,35.1,29.83,NE,45,0.0,0.0,60,0.00,,,-99.99,VWS V12.07,2013-10-15 01:05:00,
2013-10-14 20:10:00,48.2,35.4,29.83,NE,45,0.0,0.0,61,0.00,,,-99.99,VWS V12.07,2013-10-15 01:10:00,
2013-10-14 20:15:00,48.0,35.2,29.83,NE,45,0.0,0.0,61,0.00,,,-99.99,VWS V12.07,2013-10-15 01:15:00,
2013-10-14 20:25:00,48.0,35.2,29.83,NE,45,0.0,0.0,61,0.00,,,-99.99,VWS V12.07,2013-10-15 01:25:00,
2013-10-14 20:30:00,48.0,35.2,29.83,NE,45,0.0,0.0,61,0.00,,,-99.99,VWS V12.07,2013-10-15 01:30:00,
2013-10-14 20:35:00,48.0,35.6,29.83,NE,45,0.0,0.0,62,0.00,,,-99.99,VWS V12.07,2013-10-15 01:35:00,
2013-10-14 20:40:00,47.8,35.4,29.83,NE,45,1.3,1.3,62,0.00,,,-99.99,VWS V12.07,2013-10-15 01:40:00,
2013-10-14 20:45:00,47.8,35.4,29.83,NE,45,1.5,1.5,62,0.00,,,-99.99,VWS V12.07,2013-10-15 01:45:00,
2013-10-14 20:50:00,47.8,35.4,29.83,NE,45,0.0,1.5,62,0.00,,,-99.99,VWS V12.07,2013-10-15 01:50:00,
2013-10-14 20:55:00,47.8,35.8,29.83,NE,45,0.0,1.5,63,0.00,,,-99.99,VWS V12.07,2013-10-15 01:55:00,
2013-10-14 21:00:00,47.4,35.5,29.83,NE,45,0.0,1.5,63,0.00,,,-99.99,VWS V12.07,2013-10-15 02:00:00,
2013-10-14 21:05:00,47.4,35.5,29.83,NE,45,0.0,0.0,63,0.00,,,-99.99,VWS V12.07,2013-10-15 02:05:00,
2013-10-14 21:10:00,47.3,35.4,29.83,NE,45,0.0,0.0,63,0.00,,,-99.99,VWS V12.07,2013-10-15 02:10:00,
2013-10-14 21:15:00,47.1,35.6,29.83,NE,45,1.3,1.3,64,0.00,,,-99.99,VWS V12.07,2013-10-15 02:15:00,
2013-10-14 21:20:00,47.1,35.6,29.83,NE,45,0.0,1.3,64,0.00,,,-99.99,VWS V12.07,2013-10-15 02:20:00,
2013-10-14 21:25:00,46.9,35.8,29.83,NE,45,0.0,1.3,65,0.00,,,-99.99,VWS V12.07,2013-10-15 02:25:00,
2013-10-14 21:30:00,46.7,35.6,29.83,NE,45,0.0,1.3,65,0.00,,,-99.99,VWS V12.07,2013-10-15 02:30:00,
2013-10-14 21:35:00,46.7,36.0,29.83,NE,45,0.0,0.0,66,0.00,,,-99.99,VWS V12.07,2013-10-15 02:35:00,
2013-10-14 21:40:00,46.5,35.8,29.83,NE,45,0.0,0.0,66,0.00,,,-99.99,VWS V12.07,2013-10-15 02:40:00,
2013-10-14 21:45:00,46.5,36.2,29.83,NE,45,0.0,0.0,67,0.00,,,-99.99,VWS V12.07,2013-10-15 02:45:00,
2013-10-14 21:50:00,46.4,36.0,29.82,NE,45,0.0,0.0,67,0.00,,,-99.99,VWS V12.07,2013-10-15 02:50:00,
2013-10-14 21:55:00,46.2,36.2,29.82,ESE,112,0.0,0.0,68,0.00,,,-99.99,VWS V12.07,2013-10-15 02:55:00,
2013-10-14 22:00:00,46.2,36.6,29.81,ESE,112,0.0,0.0,69,0.00,,,-99.99,VWS V12.07,2013-10-15 03:00:00,
2013-10-14 22:05:00,46.2,36.6,29.81,NE,45,0.0,0.0,69,0.00,,,-99.99,VWS V12.07,2013-10-15 03:05:00,
2013-10-14 22:10:00,46.0,36.4,29.81,NE,45,0.0,0.0,69,0.00,,,-99.99,VWS V12.07,2013-10-15 03:10:00,
2013-10-14 22:15:00,46.0,36.8,29.81,NE,45,0.0,0.0,70,0.00,,,-99.99,VWS V12.07,2013-10-15 03:15:00,
2013-10-14 22:20:00,46.0,36.8,29.81,NE,45,0.0,0.0,70,0.00,,,-99.99,VWS V12.07,2013-10-15 03:20:00,
2013-10-14 22:25:00,46.0,37.1,29.81,NNE,22,0.0,4.2,71,0.00,,,-99.99,VWS V12.07,2013-10-15 03:25:00,
2013-10-14 22:30:00,45.8,37.0,29.80,NNE,22,0.0,4.2,71,0.00,,,-99.99,VWS V12.07,2013-10-15 03:30:00,
2013-10-14 22:35:00,46.0,37.1,29.80,NNE,22,0.6,0.6,71,0.00,,,-99.99,VWS V12.07,2013-10-15 03:35:00,
2013-10-14 22:40:00,45.6,37.1,29.80,NNE,22,0.0,0.6,72,0.00,,,-99.99,VWS V12.07,2013-10-15 03:40:00,
2013-10-14 22:45:00,45.6,37.1,29.79,NE,45,0.0,0.6,72,0.00,,,-99.99,VWS V12.07,2013-10-15 03:45:00,
2013-10-14 22:50:00,45.6,37.5,29.79,NE,45,0.0,0.0,73,0.00,,,-99.99,VWS V12.07,2013-10-15 03:50:00,
2013-10-14 22:55:00,45.6,37.5,29.79,NNE,22,0.0,0.0,73,0.00,,,-99.99,VWS V12.07,2013-10-15 03:55:00,
2013-10-14 23:00:00,45.6,37.5,29.79,NE,45,0.0,0.0,73,0.00,,,-99.99,VWS V12.07,2013-10-15 04:00:00,
2013-10-14 23:05:00,45.5,37.4,29.79,NE,45,0.4,0.4,73,0.00,,,-99.99,VWS V12.07,2013-10-15 04:05:00,
2013-10-14 23:10:00,45.3,37.5,29.79,NE,45,0.0,0.4,74,0.00,,,-99.99,VWS V12.07,2013-10-15 04:10:00,
2013-10-14 23:15:00,45.3,37.5,29.79,NE,45,0.0,0.4,74,0.00,,,-99.99,VWS V12.07,2013-10-15 04:15:00,
2013-10-14 23:20:00,45.3,37.5,29.79,NE,45,0.0,0.0,74,0.00,,,-99.99,VWS V12.07,2013-10-15 04:20:00,
2013-10-14 23:25:00,45.1,37.7,29.79,NE,45,4.4,4.4,75,0.00,,,-99.99,VWS V12.07,2013-10-15 04:25:00,
2013-10-14 23:30:00,45.1,37.7,29.78,NE,45,0.0,4.4,75,0.00,,,-99.99,VWS V12.07,2013-10-15 04:30:00,
2013-10-14 23:35:00,45.1,37.7,29.78,NE,45,0.0,0.0,75,0.00,,,-99.99,VWS V12.07,2013-10-15 04:35:00,
2013-10-14 23:40:00,45.1,37.7,29.78,NE,45,0.0,0.0,75,0.00,,,-99.99,VWS V12.07,2013-10-15 04:40:00,
2013-10-14 23:45:00,44.9,37.5,29.78,NE,45,0.4,0.4,75,0.00,,,-99.99,VWS V12.07,2013-10-15 04:45:00,
2013-10-14 23:50:00,44.9,37.5,29.78,NE,45,0.0,0.4,75,0.00,,,-99.99,VWS V12.07,2013-10-15 04:50:00,
2013-10-14 23:55:00,44.9,37.8,29.78,NE,45,0.0,0.4,76,0.00,,,-99.99,VWS V12.07,2013-10-15 04:55:00,